Terminal Aerodrome Forecast
Issued by NWS Wilmington, NC

Current Version | Previous Version | Graphics & Text | Print | Product List | Glossary Off
Versions: 1 2 3 4 5 6 7 8 9 10 11 12 13 14 15 16 17 18 19 20 21 22 23 24 25 26

000
FTUS42 KILM 031721
TAFFLO
TAF
KFLO 031721Z 0318/0418 21010KT 6SM -SHRA VCTS SCT015 SCT040CB
      BKN070
      TEMPO 0318/0321 5SM -SHRA OVC010
     FM040000 24007KT P6SM SCT050 BKN150
     FM041400 26010G17KT P6SM FEW080 BKN200=

USA.gov is the U.S. government's official web portal to all federal, state and local government web resources and services.